MDT,Max TemperatureF,Mean TemperatureF,Min TemperatureF,Max Dew PointF,MeanDew PointF,Min DewpointF,Max Humidity, Mean Humidity, Min Humidity, Max Sea Level PressureIn, Mean Sea Level PressureIn, Min Sea Level PressureIn, Max VisibilityMiles, Mean VisibilityMiles, Min VisibilityMiles, Max Wind SpeedMPH, Mean Wind SpeedMPH, Max Gust SpeedMPH,PrecipitationIn, CloudCover, Events, WindDirDegrees
2013-3-1,37,24,12,19,14,9,86,62,38,30.30,30.25,30.18,10,10,10,12,5,,0.00,2,,310
2013-3-2,50,37,24,27,20,14,70,51,30,30.31,30.24,30.10,10,10,10,15,7,,0.00,0,,219
2013-3-3,53,42,32,27,22,14,65,48,28,30.10,29.84,29.71,10,10,10,17,10,21,0.00,0,,217
2013-3-4,37,22,5,25,18,1,100,80,56,30.15,29.88,29.71,10,9,0,18,7,26,0.01,4,Snow,355
2013-3-5,39,21,3,27,16,0,100,76,52,30.19,30.14,30.08,10,10,10,21,9,25,0.00,0,,200
2013-3-6,51,38,26,30,17,3,80,43,24,30.08,29.97,29.88,10,10,10,15,9,21,0.00,0,,192
2013-3-7,59,46,33,27,16,10,75,34,16,30.01,29.96,29.90,10,10,10,16,8,22,0.00,0,,201
2013-3-8,44,36,28,32,28,21,100,77,61,29.97,29.83,29.65,10,8,0,12,6,,0.00,1,Fog,258
2013-3-9,30,24,19,30,24,12,100,92,74,29.99,29.74,29.60,10,2,0,33,16,43,0.04,8,Fog-Snow,342
2013-3-10,32,24,17,19,15,12,93,70,47,30.05,30.03,29.99,10,10,10,20,14,28,0.00,3,,327
2013-3-11,44,32,21,28,19,10,100,63,34,30.09,29.98,29.93,10,8,0,16,9,24,0.00,3,Fog-Snow,331
2013-3-12,32,26,21,28,25,21,100,92,80,30.23,30.18,30.10,10,8,1,17,7,20,0.00,5,Snow,157
2013-3-13,57,42,28,30,23,19,93,50,25,30.31,30.26,30.19,10,10,10,13,8,,0.00,0,,216
2013-3-14,62,47,32,27,22,18,70,42,19,30.37,30.30,30.23,10,10,7,10,7,,0.00,0,,216
2013-3-15,66,52,37,30,22,16,65,35,15,30.23,30.07,29.97,10,10,10,17,9,23,0.00,0,,250
2013-3-16,44,38,32,32,28,21,93,69,39,30.03,29.95,29.86,10,10,10,24,12,31,0.00,6,,178
2013-3-17,53,40,28,30,22,10,87,56,19,29.87,29.71,29.55,10,10,10,25,12,36,0.00,1,,247
2013-3-18,44,32,19,18,11,3,80,46,19,29.93,29.88,29.82,10,10,10,20,7,28,0.00,2,,286
2013-3-19,44,32,21,18,10,1,80,42,17,30.29,30.08,29.92,10,10,10,16,7,21,0.00,0,,354
2013-3-20,50,32,15,21,15,9,93,53,22,30.29,30.01,29.78,10,10,10,24,10,22,0.00,0,,202
2013-3-21,53,38,23,32,26,18,100,69,24,29.82,29.68,29.52,10,9,0,26,8,40,0.00,4,Fog-Rain-Thunderstorm,191
2013-3-22,37,29,21,27,22,18,100,80,48,29.81,29.74,29.59,10,8,0,33,12,44,0.01,5,Snow,154
2013-3-23,21,12,1,19,11,0,100,89,79,30.06,29.90,29.77,10,2,0,24,13,31,0.02,7,Snow,345
2013-3-24,26,12,-2,10,3,-8,100,71,37,30.09,29.99,29.95,10,9,3,13,7,,0.00,3,Snow,289
2013-3-25,26,13,0,12,6,-4,100,72,46,30.16,30.12,30.07,10,9,0,17,4,,0.00,1,Fog-Snow,153
2013-3-26,46,30,14,27,17,7,86,58,34,30.13,30.00,29.91,10,10,7,21,12,23,0.00,1,,190
2013-3-27,51,38,24,30,26,21,87,66,33,30.13,30.05,29.97,10,10,7,20,7,25,0.00,1,,189
2013-3-28,55,44,32,30,25,19,81,53,25,30.17,30.11,30.08,10,10,10,18,12,25,0.00,2,,217
2013-3-29,59,46,33,34,27,19,75,49,23,30.19,30.16,30.11,10,10,10,20,6,40,0.00,1,Rain,257
2013-3-30,60,46,33,34,27,19,100,57,22,30.24,30.15,30.06,10,10,10,24,8,32,0.00,2,Rain,306
2013-3-31,62,45,28,32,21,5,100,54,10,30.23,30.09,30.00,10,10,10,16,8,18,0.00,0,,223